Time;durP1;ratioP1;P1;durP2;ratioP2;P2;SDS_P1;SDS_P2;PMS_P1;PMS_P2;Temp;Humidity;BMP_temperature;BMP_pressure;BME280_temperature;BME280_humidity;BME280_pressure;Samples;Min_cycle;Max_cycle;Signal;HPM_P1;HPM_P2
2022/01/02 00:02:14;;;;;;;203.38;79.82;;;;;;;;;;5039114;28;20395;-73
2022/01/02 00:04:45;;;;;;;174.07;63.33;;;;;;;;;;5021915;28;20018;-73
2022/01/02 00:07:13;;;;;;;191.38;68.13;;;;;;;;;;5021854;28;20038;-73
2022/01/02 00:09:45;;;;;;;173.43;65.60;;;;;;;;;;5037324;28;20025;-74
2022/01/02 00:12:17;;;;;;;386.58;138.15;;;;;;;;;;5019657;28;20430;-74
2022/01/02 00:14:44;;;;;;;318.48;111.45;;;;;;;;;;5038234;28;20088;-73
2022/01/02 00:17:10;;;;;;;274.17;97.85;;;;;;;;;;5021497;28;20021;-73
2022/01/02 00:19:40;;;;;;;250.77;95.05;;;;;;;;;;5005385;28;20028;-73
2022/01/02 00:22:14;;;;;;;214.30;82.93;;;;;;;;;;5005359;28;20447;-73
2022/01/02 00:24:44;;;;;;;238.63;85.50;;;;;;;;;;5005503;28;20022;-73
2022/01/02 00:27:11;;;;;;;188.32;71.50;;;;;;;;;;5020795;28;20029;-73
2022/01/02 00:29:38;;;;;;;179.55;71.75;;;;;;;;;;5021542;28;20029;-73
2022/01/02 00:32:08;;;;;;;171.82;69.63;;;;;;;;;;5020960;28;20048;-73
2022/01/02 00:34:34;;;;;;;127.97;53.30;;;;;;;;;;5039115;28;20446;-73
2022/01/02 00:37:00;;;;;;;99.82;40.90;;;;;;;;;;5004843;28;20061;-73
2022/01/02 00:39:27;;;;;;;106.63;42.13;;;;;;;;;;5021025;28;20067;-73
2022/01/02 00:41:54;;;;;;;78.15;30.80;;;;;;;;;;5021498;28;20041;-73
2022/01/02 00:44:30;;;;;;;77.88;33.22;;;;;;;;;;5021216;28;20025;-73
2022/01/02 00:47:00;;;;;;;59.47;28.08;;;;;;;;;;5038760;28;20021;-73
2022/01/02 00:49:26;;;;;;;76.63;31.88;;;;;;;;;;5038211;28;20018;-73
2022/01/02 00:52:03;;;;;;;57.70;27.30;;;;;;;;;;5021255;28;20033;-73
2022/01/02 00:54:30;;;;;;;92.32;37.55;;;;;;;;;;5004524;28;20021;-73
2022/01/02 00:56:57;;;;;;;52.50;25.58;;;;;;;;;;5004815;28;20057;-73
2022/01/02 00:59:27;;;;;;;68.15;30.60;;;;;;;;;;5004758;28;20052;-73
2022/01/02 01:02:03;;;;;;;63.05;24.00;;;;;;;;;;5021068;28;20040;-73
2022/01/02 01:04:33;;;;;;;44.08;22.08;;;;;;;;;;5004342;28;20022;-73
2022/01/02 01:07:02;;;;;;;41.97;23.42;;;;;;;;;;5020595;28;20423;-73
2022/01/02 01:09:35;;;;;;;48.08;25.17;;;;;;;;;;5002103;28;20424;-74
2022/01/02 01:12:10;;;;;;;60.20;30.75;;;;;;;;;;5003769;28;20026;-73
2022/01/02 01:14:36;;;;;;;42.67;25.23;;;;;;;;;;5020518;28;20493;-73
2022/01/02 01:17:02;;;;;;;44.08;23.75;;;;;;;;;;5020625;28;20025;-73
2022/01/02 01:19:28;;;;;;;48.00;22.80;;;;;;;;;;5037786;28;20025;-73
2022/01/02 01:21:54;;;;;;;48.45;24.05;;;;;;;;;;5020082;28;20113;-73
2022/01/02 01:24:21;;;;;;;58.08;32.80;;;;;;;;;;5020621;28;20028;-73
2022/01/02 01:26:49;;;;;;;46.80;21.65;;;;;;;;;;5003139;28;20064;-73
2022/01/02 01:29:15;;;;;;;32.47;19.00;;;;;;;;;;5020403;28;20115;-73
2022/01/02 01:31:42;;;;;;;48.30;19.17;;;;;;;;;;5038036;28;20089;-73
2022/01/02 01:34:08;;;;;;;48.45;21.38;;;;;;;;;;5037902;28;20028;-73
2022/01/02 01:36:33;;;;;;;46.65;23.25;;;;;;;;;;5019994;28;20029;-73
2022/01/02 01:38:59;;;;;;;42.83;19.42;;;;;;;;;;5020036;28;20017;-73
2022/01/02 01:41:30;;;;;;;39.33;18.58;;;;;;;;;;5003935;28;20040;-73
2022/01/02 01:44:21;;;;;;;35.15;18.27;;;;;;;;;;5003951;28;20021;-73
2022/01/02 01:46:48;;;;;;;48.58;23.17;;;;;;;;;;5003604;28;20040;-73
2022/01/02 01:49:22;;;;;;;37.42;21.08;;;;;;;;;;5003779;28;20041;-73
2022/01/02 01:51:48;;;;;;;45.63;23.27;;;;;;;;;;5037807;28;20013;-73
2022/01/02 01:54:15;;;;;;;45.78;24.95;;;;;;;;;;5018291;28;20446;-74
2022/01/02 01:56:41;;;;;;;48.67;28.70;;;;;;;;;;5037538;28;20029;-73
2022/01/02 01:59:07;;;;;;;69.05;32.67;;;;;;;;;;5019978;28;20026;-73
2022/01/02 02:01:33;;;;;;;63.90;31.67;;;;;;;;;;5037082;28;20028;-73
2022/01/02 02:03:59;;;;;;;60.50;29.33;;;;;;;;;;5019594;28;20441;-73
2022/01/02 02:06:26;;;;;;;62.17;31.35;;;;;;;;;;5037606;28;20087;-73
2022/01/02 02:08:57;;;;;;;53.55;29.55;;;;;;;;;;5003264;28;20037;-73
2022/01/02 02:11:23;;;;;;;53.42;31.33;;;;;;;;;;5003174;28;20025;-73
2022/01/02 02:13:50;;;;;;;61.58;30.08;;;;;;;;;;5002936;28;20022;-73
2022/01/02 02:16:16;;;;;;;64.10;33.97;;;;;;;;;;5019657;28;20094;-73
2022/01/02 02:18:42;;;;;;;79.70;45.35;;;;;;;;;;5018781;28;20368;-73
2022/01/02 02:21:08;;;;;;;79.95;45.50;;;;;;;;;;5018997;28;20052;-73
2022/01/02 02:23:35;;;;;;;97.38;51.30;;;;;;;;;;5037388;28;20060;-73
2022/01/02 02:26:01;;;;;;;78.07;42.45;;;;;;;;;;5019570;28;20040;-73
2022/01/02 02:28:27;;;;;;;94.30;45.88;;;;;;;;;;5003132;28;20339;-73
2022/01/02 02:30:59;;;;;;;172.95;86.43;;;;;;;;;;5000783;28;20022;-74
2022/01/02 02:33:27;;;;;;;196.73;104.88;;;;;;;;;;5000572;28;20083;-73
2022/01/02 02:35:54;;;;;;;186.85;96.90;;;;;;;;;;5019095;28;20033;-73
2022/01/02 02:38:20;;;;;;;206.15;107.28;;;;;;;;;;5019122;28;20025;-73
2022/01/02 02:40:46;;;;;;;206.65;106.90;;;;;;;;;;5019246;28;20060;-73
2022/01/02 02:51:13;;;;;;;193.88;106.13;;;;;;;;;;5037044;28;20104;-73
2022/01/02 02:53:44;;;;;;;231.95;119.43;;;;;;;;;;5018887;28;20167;-73
2022/01/02 02:56:26;;;;;;;200.80;104.55;;;;;;;;;;5018954;28;20021;-73
2022/01/02 02:58:57;;;;;;;150.40;76.97;;;;;;;;;;5002612;28;20424;-74
2022/01/02 03:01:25;;;;;;;135.07;72.93;;;;;;;;;;5016695;28;20100;-74
2022/01/02 03:03:53;;;;;;;128.68;70.32;;;;;;;;;;5019016;28;20025;-73
2022/01/02 03:06:19;;;;;;;164.98;88.65;;;;;;;;;;5018852;28;20018;-73
2022/01/02 03:08:46;;;;;;;155.80;84.45;;;;;;;;;;5019070;28;20029;-73
2022/01/02 03:11:15;;;;;;;138.20;78.05;;;;;;;;;;5018908;28;20112;-73
2022/01/02 03:13:41;;;;;;;145.02;73.20;;;;;;;;;;5036662;28;20068;-73
2022/01/02 03:16:08;;;;;;;113.28;61.40;;;;;;;;;;5018539;28;20052;-73
2022/01/02 03:18:34;;;;;;;125.82;67.28;;;;;;;;;;5019142;28;20109;-73
2022/01/02 03:21:00;;;;;;;147.77;77.78;;;;;;;;;;5036583;28;20026;-73
2022/01/02 03:23:26;;;;;;;112.30;59.70;;;;;;;;;;5002707;28;20379;-73
2022/01/02 03:25:52;;;;;;;127.07;67.03;;;;;;;;;;5036417;28;20120;-73
2022/01/02 03:28:18;;;;;;;127.18;64.05;;;;;;;;;;5018670;28;20116;-73
2022/01/02 03:30:44;;;;;;;131.25;67.97;;;;;;;;;;5002265;28;20029;-73
2022/01/02 03:33:10;;;;;;;148.77;72.25;;;;;;;;;;5036163;28;20057;-73
2022/01/02 03:35:36;;;;;;;128.65;75.22;;;;;;;;;;5018652;28;20501;-73
2022/01/02 03:38:03;;;;;;;136.90;77.70;;;;;;;;;;5036359;28;20033;-73
2022/01/02 03:40:29;;;;;;;136.98;77.78;;;;;;;;;;5035700;28;20113;-73
2022/01/02 03:42:55;;;;;;;179.80;91.65;;;;;;;;;;5018975;28;20049;-73
2022/01/02 03:45:21;;;;;;;234.85;116.18;;;;;;;;;;5036363;28;20029;-73
2022/01/02 03:47:47;;;;;;;209.55;109.05;;;;;;;;;;5018625;28;20033;-73
2022/01/02 03:50:14;;;;;;;216.52;105.55;;;;;;;;;;5037920;28;20336;-73
2022/01/02 03:52:40;;;;;;;211.13;105.82;;;;;;;;;;5022484;28;20021;-73
2022/01/02 03:55:07;;;;;;;190.18;101.68;;;;;;;;;;5005981;28;20032;-72
2022/01/02 03:57:33;;;;;;;173.27;91.53;;;;;;;;;;5022050;28;20463;-73
2022/01/02 03:59:59;;;;;;;177.43;90.78;;;;;;;;;;5039455;28;20044;-73
2022/01/02 04:02:26;;;;;;;218.30;111.03;;;;;;;;;;5039204;28;20432;-73
2022/01/02 04:04:52;;;;;;;182.57;90.55;;;;;;;;;;5005495;28;20024;-73
2022/01/02 04:07:19;;;;;;;155.77;79.93;;;;;;;;;;5021439;28;20027;-73
2022/01/02 04:09:45;;;;;;;147.13;76.75;;;;;;;;;;5039573;28;20331;-73
2022/01/02 04:12:11;;;;;;;170.73;84.05;;;;;;;;;;5021864;28;20378;-72
2022/01/02 04:14:37;;;;;;;153.93;77.30;;;;;;;;;;5005731;28;20026;-72
2022/01/02 04:17:04;;;;;;;134.20;64.07;;;;;;;;;;5021346;28;20071;-73
2022/01/02 04:19:30;;;;;;;122.40;56.88;;;;;;;;;;5021655;28;20017;-72
2022/01/02 04:21:56;;;;;;;108.68;50.67;;;;;;;;;;5039387;28;20028;-73
2022/01/02 04:24:23;;;;;;;108.75;52.45;;;;;;;;;;5038771;28;20108;-72
2022/01/02 04:26:49;;;;;;;104.60;51.67;;;;;;;;;;5021629;28;20017;-72
2022/01/02 04:29:15;;;;;;;107.82;48.42;;;;;;;;;;5005166;28;20095;-73
2022/01/02 04:31:41;;;;;;;91.53;44.75;;;;;;;;;;5038857;28;20021;-73
2022/01/02 04:34:07;;;;;;;97.63;46.90;;;;;;;;;;5038591;28;20439;-73
2022/01/02 04:36:33;;;;;;;80.10;39.15;;;;;;;;;;5005013;28;20076;-73
2022/01/02 04:38:59;;;;;;;73.07;39.30;;;;;;;;;;5020999;28;20343;-73
2022/01/02 04:41:25;;;;;;;73.38;35.65;;;;;;;;;;5039031;28;20416;-72
2022/01/02 04:43:51;;;;;;;79.95;42.35;;;;;;;;;;5038810;28;20017;-73
2022/01/02 04:46:20;;;;;;;55.67;28.38;;;;;;;;;;5004985;28;20079;-72
2022/01/02 04:48:47;;;;;;;65.68;29.17;;;;;;;;;;5038435;28;20048;-73
2022/01/02 04:51:13;;;;;;;49.00;21.90;;;;;;;;;;5020973;28;20324;-73
2022/01/02 04:53:47;;;;;;;45.30;19.95;;;;;;;;;;5005011;28;20368;-72
2022/01/02 04:56:13;;;;;;;39.92;20.83;;;;;;;;;;5020396;28;20017;-72
2022/01/02 04:58:40;;;;;;;41.70;22.52;;;;;;;;;;5038133;28;20049;-73
2022/01/02 05:01:14;;;;;;;47.40;24.33;;;;;;;;;;5020892;28;20382;-72
2022/01/02 05:03:40;;;;;;;50.35;26.30;;;;;;;;;;5004364;28;20028;-73
2022/01/02 05:06:07;;;;;;;53.22;28.70;;;;;;;;;;5038460;28;20022;-72
2022/01/02 05:08:33;;;;;;;57.88;31.23;;;;;;;;;;5038112;28;20360;-73
2022/01/02 05:10:59;;;;;;;60.75;30.95;;;;;;;;;;5038167;28;20335;-72
2022/01/02 05:13:26;;;;;;;64.38;35.45;;;;;;;;;;5020728;28;20052;-72
2022/01/02 05:15:52;;;;;;;64.07;35.30;;;;;;;;;;5004271;28;20021;-72
2022/01/02 05:18:18;;;;;;;86.85;40.38;;;;;;;;;;5004299;28;20098;-72
2022/01/02 05:20:46;;;;;;;61.90;34.72;;;;;;;;;;5020777;28;20056;-72
2022/01/02 05:23:13;;;;;;;69.93;33.38;;;;;;;;;;5020351;28;20045;-73
2022/01/02 05:25:40;;;;;;;52.78;29.73;;;;;;;;;;5020413;28;20025;-73
2022/01/02 05:28:06;;;;;;;58.70;28.92;;;;;;;;;;5037362;28;20040;-73
2022/01/02 05:30:32;;;;;;;55.85;29.80;;;;;;;;;;5037841;28;20025;-73
2022/01/02 05:32:58;;;;;;;55.05;26.70;;;;;;;;;;5037511;28;20017;-73
2022/01/02 05:35:24;;;;;;;47.03;24.92;;;;;;;;;;5020268;28;20112;-73
2022/01/02 05:37:51;;;;;;;38.15;17.85;;;;;;;;;;5003867;28;20065;-73
2022/01/02 05:40:17;;;;;;;30.05;16.38;;;;;;;;;;5037368;28;20013;-72
2022/01/02 05:42:45;;;;;;;31.67;16.40;;;;;;;;;;5020119;28;20022;-72
2022/01/02 05:45:12;;;;;;;39.80;18.38;;;;;;;;;;5003928;28;20017;-72
2022/01/02 05:47:38;;;;;;;35.92;16.63;;;;;;;;;;5003523;28;20040;-73
2022/01/02 05:50:07;;;;;;;42.75;16.17;;;;;;;;;;5019886;28;20471;-73
2022/01/02 05:52:34;;;;;;;26.90;14.60;;;;;;;;;;5020073;28;20028;-73
2022/01/02 05:55:00;;;;;;;37.90;16.40;;;;;;;;;;5019411;28;20415;-72
2022/01/02 05:57:26;;;;;;;30.88;14.25;;;;;;;;;;5036940;28;20036;-72
2022/01/02 05:59:55;;;;;;;31.65;16.05;;;;;;;;;;5019487;28;20021;-72
2022/01/02 06:02:23;;;;;;;40.10;14.88;;;;;;;;;;5003872;28;20332;-73
2022/01/02 06:04:50;;;;;;;33.05;14.82;;;;;;;;;;5003036;28;20410;-73
2022/01/02 06:07:16;;;;;;;30.20;14.52;;;;;;;;;;5019714;28;20345;-73
2022/01/02 06:09:43;;;;;;;35.42;14.93;;;;;;;;;;5019131;28;20043;-73
2022/01/02 06:12:11;;;;;;;35.30;14.85;;;;;;;;;;5002058;28;20018;-73
2022/01/02 06:14:37;;;;;;;36.22;16.20;;;;;;;;;;5037140;28;20029;-73
2022/01/02 06:17:03;;;;;;;35.33;16.73;;;;;;;;;;5003259;28;20022;-72
2022/01/02 06:19:29;;;;;;;29.02;17.13;;;;;;;;;;5002379;28;20021;-73
2022/01/02 06:21:56;;;;;;;35.65;16.08;;;;;;;;;;5003050;28;20022;-72
2022/01/02 06:24:22;;;;;;;29.90;16.02;;;;;;;;;;5035340;28;20049;-74
2022/01/02 06:26:48;;;;;;;32.08;16.30;;;;;;;;;;5003059;28;20116;-73
2022/01/02 06:29:15;;;;;;;29.38;15.88;;;;;;;;;;5002853;28;20041;-73
2022/01/02 06:31:41;;;;;;;35.55;15.77;;;;;;;;;;5036939;28;20086;-73
2022/01/02 06:34:07;;;;;;;31.48;16.08;;;;;;;;;;5036986;28;20025;-73
2022/01/02 06:36:33;;;;;;;24.85;14.60;;;;;;;;;;5018806;28;20032;-73
2022/01/02 06:39:00;;;;;;;34.28;15.30;;;;;;;;;;5035458;28;20030;-74
2022/01/02 06:41:29;;;;;;;31.63;15.90;;;;;;;;;;5000390;28;20301;-73
2022/01/02 06:43:56;;;;;;;30.65;13.75;;;;;;;;;;5036202;28;20028;-73
2022/01/02 06:46:23;;;;;;;25.65;14.05;;;;;;;;;;5018809;28;20022;-73
2022/01/02 06:48:49;;;;;;;25.60;13.30;;;;;;;;;;5017951;28;20034;-72
2022/01/02 06:51:16;;;;;;;30.27;13.50;;;;;;;;;;5016961;28;20350;-73
2022/01/02 06:53:47;;;;;;;25.23;11.52;;;;;;;;;;5036156;28;20032;-74
2022/01/02 06:56:20;;;;;;;24.85;12.52;;;;;;;;;;5002879;28;20021;-73
2022/01/02 06:58:47;;;;;;;31.13;12.63;;;;;;;;;;5018129;28;20022;-73
2022/01/02 07:01:13;;;;;;;25.90;12.85;;;;;;;;;;5002951;28;20021;-73
2022/01/02 07:03:39;;;;;;;28.60;14.00;;;;;;;;;;5018576;28;20111;-73
2022/01/02 07:06:05;;;;;;;27.40;12.25;;;;;;;;;;5036137;28;20400;-73
2022/01/02 07:08:34;;;;;;;28.77;13.32;;;;;;;;;;5017686;28;20033;-73
2022/01/02 07:11:02;;;;;;;29.00;15.07;;;;;;;;;;5018509;28;20028;-72
2022/01/02 07:13:28;;;;;;;27.63;13.52;;;;;;;;;;5018937;28;20029;-73
2022/01/02 07:15:57;;;;;;;25.52;11.65;;;;;;;;;;5018160;28;20029;-73
2022/01/02 07:18:25;;;;;;;27.98;12.32;;;;;;;;;;5018173;28;20086;-73
2022/01/02 07:20:52;;;;;;;34.17;13.38;;;;;;;;;;5036334;28;20349;-73
2022/01/02 07:23:19;;;;;;;33.00;15.85;;;;;;;;;;5017848;28;20047;-73
2022/01/02 07:25:57;;;;;;;36.95;16.15;;;;;;;;;;5004424;28;20017;-74
2022/01/02 07:28:24;;;;;;;37.58;14.63;;;;;;;;;;5020992;28;20035;-73
2022/01/02 07:30:50;;;;;;;30.60;16.67;;;;;;;;;;5039515;28;20041;-73
2022/01/02 07:33:22;;;;;;;40.38;17.38;;;;;;;;;;5022886;28;20032;-73
2022/01/02 07:35:58;;;;;;;40.20;16.77;;;;;;;;;;5005107;28;20079;-73
2022/01/02 07:38:40;;;;;;;37.55;19.08;;;;;;;;;;5039889;28;20030;-73
2022/01/02 07:41:06;;;;;;;49.85;23.20;;;;;;;;;;5021969;28;20473;-73
2022/01/02 07:43:32;;;;;;;62.08;29.85;;;;;;;;;;5006175;28;20030;-73
2022/01/02 07:45:58;;;;;;;54.97;28.88;;;;;;;;;;5022474;28;20427;-73
2022/01/02 07:48:24;;;;;;;51.30;26.75;;;;;;;;;;5039745;28;20033;-73
2022/01/02 07:50:50;;;;;;;53.03;26.45;;;;;;;;;;5021530;28;20335;-73
2022/01/02 07:53:17;;;;;;;50.33;26.48;;;;;;;;;;5022229;28;20029;-73
2022/01/02 07:55:45;;;;;;;54.15;28.55;;;;;;;;;;5020835;28;20048;-73
2022/01/02 07:58:11;;;;;;;51.75;25.48;;;;;;;;;;5021231;28;20022;-73
2022/01/02 08:00:37;;;;;;;38.70;18.45;;;;;;;;;;5039094;28;20017;-73
2022/01/02 08:03:03;;;;;;;37.70;18.30;;;;;;;;;;5021728;28;20080;-73
2022/01/02 08:05:37;;;;;;;35.08;17.60;;;;;;;;;;5019771;28;20021;-73
2022/01/02 08:08:05;;;;;;;39.10;15.27;;;;;;;;;;5005338;28;20033;-73
2022/01/02 08:10:33;;;;;;;30.52;14.45;;;;;;;;;;5032334;22;20047;-74
2022/01/02 08:13:02;;;;;;;31.88;14.88;;;;;;;;;;5038805;28;20017;-73
2022/01/02 08:15:32;;;;;;;37.85;16.80;;;;;;;;;;5024889;28;20017;-73
2022/01/02 08:17:58;;;;;;;37.40;17.17;;;;;;;;;;5056380;28;20024;-73
2022/01/02 08:20:24;;;;;;;37.75;16.65;;;;;;;;;;5058761;28;20017;-73
2022/01/02 08:22:50;;;;;;;38.45;16.15;;;;;;;;;;5041653;28;20078;-73
2022/01/02 08:25:16;;;;;;;33.90;17.00;;;;;;;;;;5040894;28;20028;-73
2022/01/02 08:27:43;;;;;;;38.60;16.92;;;;;;;;;;5058808;28;20029;-73
2022/01/02 08:30:10;;;;;;;31.73;16.58;;;;;;;;;;5024729;28;20017;-73
2022/01/02 08:32:38;;;;;;;38.15;18.23;;;;;;;;;;5039992;28;20481;-73
2022/01/02 08:35:05;;;;;;;32.30;15.90;;;;;;;;;;5023551;28;20017;-73
2022/01/02 08:37:32;;;;;;;33.72;15.32;;;;;;;;;;5040531;28;20111;-72
2022/01/02 08:39:58;;;;;;;38.80;13.75;;;;;;;;;;5024454;28;20052;-73
2022/01/02 08:42:24;;;;;;;33.42;12.77;;;;;;;;;;5058401;28;20021;-72
2022/01/02 08:44:56;;;;;;;23.70;11.57;;;;;;;;;;5040844;28;20027;-73
2022/01/02 08:47:23;;;;;;;29.92;13.02;;;;;;;;;;5024097;28;20025;-73
2022/01/02 08:49:50;;;;;;;32.00;12.88;;;;;;;;;;5022845;28;20119;-73
2022/01/02 08:52:16;;;;;;;31.25;14.07;;;;;;;;;;5040667;28;20434;-73
2022/01/02 08:54:42;;;;;;;30.67;14.00;;;;;;;;;;5058611;28;20032;-73
2022/01/02 08:57:09;;;;;;;26.00;12.50;;;;;;;;;;5037987;28;20021;-73
2022/01/02 08:59:36;;;;;;;27.02;12.05;;;;;;;;;;5022963;28;20416;-73
2022/01/02 09:02:02;;;;;;;39.58;11.40;;;;;;;;;;5040726;28;20090;-72
2022/01/02 09:04:28;;;;;;;26.40;13.90;;;;;;;;;;5057319;28;20036;-73
2022/01/02 09:06:54;;;;;;;27.20;12.63;;;;;;;;;;5024325;28;20031;-72
2022/01/02 09:09:21;;;;;;;47.72;22.33;;;;;;;;;;5024219;28;20154;-73
2022/01/02 09:11:49;;;;;;;44.47;21.23;;;;;;;;;;5040718;28;20029;-72
2022/01/02 09:14:17;;;;;;;51.15;22.55;;;;;;;;;;5023524;28;20334;-73
2022/01/02 09:16:45;;;;;;;55.03;22.85;;;;;;;;;;5023292;28;20386;-72
2022/01/02 09:19:12;;;;;;;39.67;21.35;;;;;;;;;;5039912;28;20107;-73
2022/01/02 09:21:39;;;;;;;45.67;21.45;;;;;;;;;;5040475;28;20391;-73
2022/01/02 09:24:06;;;;;;;47.92;20.63;;;;;;;;;;5039818;28;20020;-72
2022/01/02 09:26:32;;;;;;;46.28;21.25;;;;;;;;;;5024097;28;20502;-72
2022/01/02 09:28:58;;;;;;;38.78;20.60;;;;;;;;;;5057463;28;20033;-73
2022/01/02 09:31:24;;;;;;;45.90;22.45;;;;;;;;;;5039608;28;20021;-73
2022/01/02 09:33:50;;;;;;;49.40;23.98;;;;;;;;;;5040239;28;20111;-73
2022/01/02 09:36:17;;;;;;;46.22;21.65;;;;;;;;;;5039638;28;20013;-72
2022/01/02 09:38:43;;;;;;;38.88;19.67;;;;;;;;;;5057906;28;20063;-72
2022/01/02 09:41:09;;;;;;;41.05;22.35;;;;;;;;;;5039561;28;20043;-73
2022/01/02 09:43:36;;;;;;;50.53;24.88;;;;;;;;;;5057225;28;20115;-73
2022/01/02 09:46:03;;;;;;;59.90;21.70;;;;;;;;;;5039428;28;20021;-72
2022/01/02 09:48:30;;;;;;;43.40;20.35;;;;;;;;;;5022631;28;20040;-73
2022/01/02 09:50:56;;;;;;;41.05;20.70;;;;;;;;;;5039848;28;20090;-73
2022/01/02 09:53:23;;;;;;;39.50;23.00;;;;;;;;;;5023362;28;20431;-73
2022/01/02 09:55:49;;;;;;;37.75;19.67;;;;;;;;;;5039782;28;20017;-73
2022/01/02 09:58:15;;;;;;;60.20;23.48;;;;;;;;;;5039428;28;20045;-73
2022/01/02 10:00:47;;;;;;;40.50;20.42;;;;;;;;;;5039028;28;20044;-72
2022/01/02 10:03:14;;;;;;;31.83;19.15;;;;;;;;;;5038907;28;20024;-73
2022/01/02 10:05:54;;;;;;;36.63;18.88;;;;;;;;;;5039158;28;20402;-73
2022/01/02 10:08:21;;;;;;;;;;;;;;;;;;5023449;28;20087;-73
2022/01/02 10:10:47;;;;;;;43.80;22.42;;;;;;;;;;5056821;28;20211;-73
2022/01/02 10:13:15;;;;;;;43.83;22.52;;;;;;;;;;5039294;28;20021;-72
2022/01/02 10:15:43;;;;;;;43.92;23.60;;;;;;;;;;5039272;28;20036;-73
2022/01/02 10:18:11;;;;;;;51.80;26.20;;;;;;;;;;5022758;28;20438;-72
2022/01/02 10:20:41;;;;;;;56.88;26.67;;;;;;;;;;5039490;28;20123;-72
2022/01/02 10:23:12;;;;;;;51.72;27.30;;;;;;;;;;5039239;28;20028;-73
2022/01/02 10:25:41;;;;;;;48.35;23.20;;;;;;;;;;5057053;28;20017;-72
2022/01/02 10:28:27;;;;;;;46.83;23.92;;;;;;;;;;5056826;28;20441;-73
2022/01/02 10:30:55;;;;;;;43.88;22.60;;;;;;;;;;5040449;28;20033;-73
2022/01/02 10:33:21;;;;;;;51.30;26.42;;;;;;;;;;5022848;28;20393;-73
2022/01/02 10:35:54;;;;;;;51.03;27.85;;;;;;;;;;5056794;28;20051;-72
2022/01/02 10:38:21;;;;;;;59.08;29.33;;;;;;;;;;5022278;28;20024;-73
2022/01/02 10:40:48;;;;;;;51.25;26.17;;;;;;;;;;5038564;28;20480;-73
2022/01/02 10:43:24;;;;;;;55.25;27.85;;;;;;;;;;5022581;28;20332;-73
2022/01/02 10:45:51;;;;;;;61.88;26.05;;;;;;;;;;5022646;28;20017;-72
2022/01/02 10:48:28;;;;;;;57.60;27.50;;;;;;;;;;5022574;28;20037;-72
2022/01/02 10:51:01;;;;;;;48.28;24.23;;;;;;;;;;5022743;28;20027;-73
2022/01/02 10:53:28;;;;;;;61.40;22.48;;;;;;;;;;5056376;28;20024;-73
2022/01/02 10:55:55;;;;;;;48.55;23.02;;;;;;;;;;5038613;28;20021;-73
2022/01/02 10:58:22;;;;;;;45.50;23.48;;;;;;;;;;5022585;28;20120;-73
2022/01/02 11:00:50;;;;;;;48.92;25.15;;;;;;;;;;5042872;28;20025;-73
2022/01/02 11:03:16;;;;;;;57.35;27.02;;;;;;;;;;5060120;28;20411;-73
2022/01/02 11:05:45;;;;;;;57.22;29.48;;;;;;;;;;5043094;28;20025;-73
2022/01/02 11:08:12;;;;;;;57.83;30.38;;;;;;;;;;5026503;28;20144;-72
2022/01/02 11:10:38;;;;;;;66.53;32.88;;;;;;;;;;5060514;28;20037;-73
2022/01/02 11:13:05;;;;;;;62.22;33.15;;;;;;;;;;5042757;28;20052;-72
2022/01/02 11:15:33;;;;;;;82.20;39.20;;;;;;;;;;5042879;28;20056;-73
2022/01/02 11:17:59;;;;;;;104.55;43.20;;;;;;;;;;5024762;28;20020;-72
2022/01/02 11:20:29;;;;;;;88.95;42.03;;;;;;;;;;5041956;28;20381;-72
2022/01/02 11:23:08;;;;;;;87.63;40.80;;;;;;;;;;5025591;28;20052;-72
2022/01/02 11:25:45;;;;;;;90.55;44.35;;;;;;;;;;5042493;28;20049;-73
2022/01/02 11:28:30;;;;;;;83.93;45.00;;;;;;;;;;5042334;28;20028;-72
2022/01/02 11:30:57;;;;;;;86.85;43.70;;;;;;;;;;5060244;28;20112;-73
2022/01/02 11:33:30;;;;;;;81.78;44.47;;;;;;;;;;5042255;28;20359;-73
2022/01/02 11:35:58;;;;;;;83.30;45.00;;;;;;;;;;5059968;28;20052;-73
2022/01/02 11:38:26;;;;;;;89.07;47.13;;;;;;;;;;5060012;28;20056;-73
2022/01/02 11:40:58;;;;;;;103.82;51.17;;;;;;;;;;5025887;28;20025;-73
2022/01/02 11:43:46;;;;;;;104.10;53.75;;;;;;;;;;5025766;28;20017;-72
2022/01/02 11:46:20;;;;;;;101.55;56.30;;;;;;;;;;5041545;28;20427;-72
2022/01/02 11:49:13;;;;;;;101.88;54.17;;;;;;;;;;5041993;28;20063;-73
2022/01/02 11:51:48;;;;;;;114.82;52.33;;;;;;;;;;5041838;28;20411;-72
2022/01/02 11:54:35;;;;;;;107.95;50.25;;;;;;;;;;5025430;28;20025;-72
2022/01/02 11:57:26;;;;;;;88.32;46.58;;;;;;;;;;5041732;28;20025;-72
2022/01/02 11:59:52;;;;;;;;;;;;;;;;;;5042583;28;20078;-72
2022/01/02 12:02:18;;;;;;;99.15;50.95;;;;;;;;;;5025452;28;19959;-72
2022/01/02 12:04:59;;;;;;;86.70;47.10;;;;;;;;;;5058696;28;20383;-73
2022/01/02 12:07:37;;;;;;;124.43;65.80;;;;;;;;;;5024864;28;20017;-73
2022/01/02 12:15:23;;;;;;;394.27;201.15;;;;;;;;;;5041816;28;20112;-73
2022/01/02 12:18:10;;;;;;;401.95;208.80;;;;;;;;;;5058681;28;20405;-72
2022/01/02 12:20:56;;;;;;;416.63;220.27;;;;;;;;;;5041368;28;20449;-72
2022/01/02 12:23:43;;;;;;;371.48;202.50;;;;;;;;;;5025077;28;20021;-73
2022/01/02 12:26:09;;;;;;;337.30;185.82;;;;;;;;;;5028621;28;20029;-73
2022/01/02 12:28:46;;;;;;;301.40;168.68;;;;;;;;;;5058614;28;20036;-73
2022/01/02 12:31:14;;;;;;;283.98;146.55;;;;;;;;;;5058650;28;20016;-73
2022/01/02 12:33:40;;;;;;;302.20;163.65;;;;;;;;;;5040303;28;20028;-73
2022/01/02 12:36:10;;;;;;;264.30;147.57;;;;;;;;;;5041064;28;20167;-73
2022/01/02 12:38:48;;;;;;;329.95;171.80;;;;;;;;;;5040803;28;20107;-73
2022/01/02 12:41:23;;;;;;;305.63;162.88;;;;;;;;;;5040887;28;20021;-73
2022/01/02 12:43:53;;;;;;;296.48;149.90;;;;;;;;;;5041359;28;20107;-73
2022/01/02 12:46:39;;;;;;;261.23;139.13;;;;;;;;;;5040346;28;20021;-74
2022/01/02 12:49:09;;;;;;;256.65;134.15;;;;;;;;;;5023785;28;20323;-73
2022/01/02 12:51:37;;;;;;;228.43;121.65;;;;;;;;;;5058101;28;20021;-73
2022/01/02 12:54:06;;;;;;;196.57;109.43;;;;;;;;;;5024449;28;20025;-73
2022/01/02 12:56:36;;;;;;;222.50;121.05;;;;;;;;;;5037780;28;20021;-73
2022/01/02 12:59:21;;;;;;;230.23;118.05;;;;;;;;;;5041009;28;20028;-72
2022/01/02 13:01:48;;;;;;;202.77;110.78;;;;;;;;;;5040160;28;20021;-73
2022/01/02 13:04:15;;;;;;;209.93;116.07;;;;;;;;;;5040510;28;20021;-73
2022/01/02 13:06:46;;;;;;;222.80;121.13;;;;;;;;;;5039606;28;20013;-73
2022/01/02 13:09:20;;;;;;;234.18;127.45;;;;;;;;;;5040401;28;20033;-73
2022/01/02 13:11:47;;;;;;;215.80;117.65;;;;;;;;;;5040497;28;20326;-73
2022/01/02 13:14:28;;;;;;;195.63;105.57;;;;;;;;;;5058235;28;20045;-73
2022/01/02 13:16:55;;;;;;;196.05;107.45;;;;;;;;;;5024224;28;20021;-73
2022/01/02 13:19:23;;;;;;;191.32;103.03;;;;;;;;;;5040300;28;20024;-73
2022/01/02 13:21:52;;;;;;;161.63;87.38;;;;;;;;;;5040077;28;20024;-73
2022/01/02 13:24:29;;;;;;;165.18;88.43;;;;;;;;;;5023859;28;20020;-72
2022/01/02 13:27:07;;;;;;;153.75;77.20;;;;;;;;;;5056820;28;20021;-74
2022/01/02 13:29:59;;;;;;;149.20;78.20;;;;;;;;;;5074284;22;20041;-75
2022/01/02 13:33:03;;;;;;;161.68;88.65;;;;;;;;;;4947425;28;20131;-74
2022/01/02 13:35:32;;;;;;;173.93;83.47;;;;;;;;;;5019874;28;20021;-74
2022/01/02 13:38:17;;;;;;;167.82;87.15;;;;;;;;;;5018024;23;20123;-74
2022/01/02 13:41:12;;;;;;;160.10;80.78;;;;;;;;;;5011415;28;20493;-74
2022/01/02 13:43:38;;;;;;;150.65;76.45;;;;;;;;;;5003384;28;20029;-73
2022/01/02 13:46:13;;;;;;;152.63;82.50;;;;;;;;;;5037627;28;20018;-74
2022/01/02 13:48:40;;;;;;;151.85;80.85;;;;;;;;;;5019417;28;20037;-73
2022/01/02 13:51:13;;;;;;;157.73;81.97;;;;;;;;;;5037054;28;20113;-74
2022/01/02 13:53:49;;;;;;;162.93;80.90;;;;;;;;;;5003889;28;20021;-73
2022/01/02 13:56:18;;;;;;;152.75;79.47;;;;;;;;;;5003661;28;20025;-73
2022/01/02 13:58:47;;;;;;;167.18;86.22;;;;;;;;;;5037017;28;20313;-73
2022/01/02 14:01:21;;;;;;;151.30;83.70;;;;;;;;;;5036791;28;20017;-73
2022/01/02 14:03:47;;;;;;;171.27;83.93;;;;;;;;;;5037291;28;20096;-73
2022/01/02 14:06:14;;;;;;;147.15;82.30;;;;;;;;;;5037431;28;20122;-73
2022/01/02 14:08:42;;;;;;;156.15;85.38;;;;;;;;;;5002836;28;20045;-73
2022/01/02 14:11:18;;;;;;;138.73;72.80;;;;;;;;;;5034345;28;20028;-75
2022/01/02 14:13:51;;;;;;;135.25;72.30;;;;;;;;;;5019198;28;20087;-73
2022/01/02 14:16:43;;;;;;;117.18;64.72;;;;;;;;;;5003097;28;20026;-73
2022/01/02 14:19:07;;;;;;;87.60;47.50;;;;;;;;;;5036496;28;20085;-73
2022/01/02 14:21:35;;;;;;;78.45;41.97;;;;;;;;;;5001396;28;20017;-74
2022/01/02 14:24:03;;;;;;;78.70;42.15;;;;;;;;;;5018473;28;20438;-74
2022/01/02 14:26:33;;;;;;;73.47;39.20;;;;;;;;;;5001119;28;20053;-74
2022/01/02 14:29:01;;;;;;;78.93;39.08;;;;;;;;;;5018798;28;20033;-73
2022/01/02 14:31:28;;;;;;;71.75;35.42;;;;;;;;;;5016271;28;20022;-73
2022/01/02 14:33:55;;;;;;;58.40;32.03;;;;;;;;;;5000525;28;20388;-73
2022/01/02 14:36:22;;;;;;;64.32;36.20;;;;;;;;;;5002747;28;20017;-73